sensor_id;sensor_type;location;lat;lon;timestamp;P1;durP1;ratioP1;P2;durP2;ratioP2
295;SDS011;132;48.770;9.200;2022-10-17T00:00:22;4.00;;;3.00;;
295;SDS011;132;48.770;9.200;2022-10-17T00:02:49;6.20;;;3.13;;
295;SDS011;132;48.770;9.200;2022-10-17T00:05:15;5.47;;;2.70;;
295;SDS011;132;48.770;9.200;2022-10-17T00:07:42;4.60;;;2.87;;
295;SDS011;132;48.770;9.200;2022-10-17T00:10:08;3.77;;;3.20;;
295;SDS011;132;48.770;9.200;2022-10-17T00:12:35;5.90;;;2.83;;
295;SDS011;132;48.770;9.200;2022-10-17T00:15:03;4.90;;;2.90;;
295;SDS011;132;48.770;9.200;2022-10-17T00:17:30;5.63;;;3.00;;
295;SDS011;132;48.770;9.200;2022-10-17T00:19:57;4.07;;;3.00;;
295;SDS011;132;48.770;9.200;2022-10-17T00:22:25;7.03;;;2.80;;
295;SDS011;132;48.770;9.200;2022-10-17T00:24:52;4.40;;;3.07;;
295;SDS011;132;48.770;9.200;2022-10-17T00:27:18;4.10;;;3.00;;
295;SDS011;132;48.770;9.200;2022-10-17T00:29:48;12.03;;;3.00;;
295;SDS011;132;48.770;9.200;2022-10-17T00:32:16;5.17;;;3.10;;
295;SDS011;132;48.770;9.200;2022-10-17T00:34:42;6.20;;;2.90;;
295;SDS011;132;48.770;9.200;2022-10-17T00:37:09;3.90;;;2.90;;
295;SDS011;132;48.770;9.200;2022-10-17T00:39:36;4.40;;;2.83;;
295;SDS011;132;48.770;9.200;2022-10-17T00:42:03;7.77;;;2.90;;
295;SDS011;132;48.770;9.200;2022-10-17T00:46:56;3.63;;;2.67;;
295;SDS011;132;48.770;9.200;2022-10-17T00:49:24;6.70;;;2.90;;
295;SDS011;132;48.770;9.200;2022-10-17T00:51:57;11.47;;;3.00;;
295;SDS011;132;48.770;9.200;2022-10-17T00:54:27;2.80;;;2.43;;
295;SDS011;132;48.770;9.200;2022-10-17T00:57:02;5.63;;;3.07;;
295;SDS011;132;48.770;9.200;2022-10-17T00:59:29;3.57;;;2.80;;
295;SDS011;132;48.770;9.200;2022-10-17T01:02:05;6.87;;;3.10;;
295;SDS011;132;48.770;9.200;2022-10-17T01:04:34;4.20;;;3.03;;
295;SDS011;132;48.770;9.200;2022-10-17T01:07:02;3.73;;;2.87;;
295;SDS011;132;48.770;9.200;2022-10-17T01:09:28;5.60;;;3.30;;
295;SDS011;132;48.770;9.200;2022-10-17T01:11:58;6.83;;;3.07;;
295;SDS011;132;48.770;9.200;2022-10-17T01:14:47;5.77;;;2.90;;
295;SDS011;132;48.770;9.200;2022-10-17T01:17:35;8.37;;;3.00;;
295;SDS011;132;48.770;9.200;2022-10-17T01:29:23;5.23;;;3.10;;
295;SDS011;132;48.770;9.200;2022-10-17T01:34:53;6.43;;;3.20;;
295;SDS011;132;48.770;9.200;2022-10-17T01:40:51;3.80;;;2.77;;
295;SDS011;132;48.770;9.200;2022-10-17T01:43:33;6.87;;;3.30;;
295;SDS011;132;48.770;9.200;2022-10-17T01:46:09;6.40;;;3.03;;
295;SDS011;132;48.770;9.200;2022-10-17T01:48:43;5.80;;;2.90;;
295;SDS011;132;48.770;9.200;2022-10-17T01:51:13;5.90;;;2.80;;
295;SDS011;132;48.770;9.200;2022-10-17T01:53:52;6.30;;;2.90;;
295;SDS011;132;48.770;9.200;2022-10-17T01:56:24;4.20;;;3.23;;
295;SDS011;132;48.770;9.200;2022-10-17T01:58:59;4.30;;;2.77;;
295;SDS011;132;48.770;9.200;2022-10-17T02:01:31;4.40;;;2.80;;
295;SDS011;132;48.770;9.200;2022-10-17T02:04:01;3.90;;;2.90;;
295;SDS011;132;48.770;9.200;2022-10-17T02:06:33;10.93;;;3.17;;
295;SDS011;132;48.770;9.200;2022-10-17T02:09:00;3.90;;;2.57;;
295;SDS011;132;48.770;9.200;2022-10-17T02:11:27;4.03;;;2.97;;
295;SDS011;132;48.770;9.200;2022-10-17T02:13:58;3.33;;;2.90;;
295;SDS011;132;48.770;9.200;2022-10-17T02:19:30;6.17;;;3.03;;
295;SDS011;132;48.770;9.200;2022-10-17T02:22:15;7.30;;;3.20;;
295;SDS011;132;48.770;9.200;2022-10-17T02:27:51;4.53;;;2.90;;
295;SDS011;132;48.770;9.200;2022-10-17T02:30:14;4.17;;;2.60;;
295;SDS011;132;48.770;9.200;2022-10-17T02:35:56;4.10;;;2.60;;
295;SDS011;132;48.770;9.200;2022-10-17T02:38:27;3.40;;;2.70;;
295;SDS011;132;48.770;9.200;2022-10-17T02:40:55;3.17;;;2.93;;
295;SDS011;132;48.770;9.200;2022-10-17T02:43:22;4.33;;;2.93;;
295;SDS011;132;48.770;9.200;2022-10-17T02:45:50;4.73;;;2.93;;
295;SDS011;132;48.770;9.200;2022-10-17T02:48:22;3.50;;;2.70;;
295;SDS011;132;48.770;9.200;2022-10-17T02:51:06;9.80;;;3.00;;
295;SDS011;132;48.770;9.200;2022-10-17T02:53:48;2.97;;;2.80;;
295;SDS011;132;48.770;9.200;2022-10-17T02:56:17;5.40;;;3.10;;
295;SDS011;132;48.770;9.200;2022-10-17T02:58:47;5.20;;;3.30;;
295;SDS011;132;48.770;9.200;2022-10-17T03:01:17;6.87;;;2.90;;
295;SDS011;132;48.770;9.200;2022-10-17T03:03:45;6.13;;;2.60;;
295;SDS011;132;48.770;9.200;2022-10-17T03:06:12;6.03;;;3.33;;
295;SDS011;132;48.770;9.200;2022-10-17T03:08:38;4.43;;;3.70;;
295;SDS011;132;48.770;9.200;2022-10-17T03:11:04;4.33;;;2.90;;
295;SDS011;132;48.770;9.200;2022-10-17T03:13:32;3.40;;;2.87;;
295;SDS011;132;48.770;9.200;2022-10-17T03:15:59;6.47;;;2.90;;
295;SDS011;132;48.770;9.200;2022-10-17T03:18:26;4.20;;;2.70;;
295;SDS011;132;48.770;9.200;2022-10-17T03:20:57;11.93;;;3.23;;
295;SDS011;132;48.770;9.200;2022-10-17T03:23:23;4.50;;;2.50;;
295;SDS011;132;48.770;9.200;2022-10-17T03:25:51;9.00;;;2.60;;
295;SDS011;132;48.770;9.200;2022-10-17T03:28:18;5.80;;;2.77;;
295;SDS011;132;48.770;9.200;2022-10-17T03:30:44;6.17;;;2.80;;
295;SDS011;132;48.770;9.200;2022-10-17T03:33:11;5.00;;;2.70;;
295;SDS011;132;48.770;9.200;2022-10-17T03:35:37;4.03;;;3.17;;
295;SDS011;132;48.770;9.200;2022-10-17T03:38:06;4.90;;;2.90;;
295;SDS011;132;48.770;9.200;2022-10-17T03:40:33;5.03;;;2.90;;
295;SDS011;132;48.770;9.200;2022-10-17T03:43:00;6.30;;;2.80;;
295;SDS011;132;48.770;9.200;2022-10-17T03:45:27;6.10;;;2.80;;
295;SDS011;132;48.770;9.200;2022-10-17T03:47:55;6.53;;;3.13;;
295;SDS011;132;48.770;9.200;2022-10-17T03:50:23;4.33;;;2.73;;
295;SDS011;132;48.770;9.200;2022-10-17T03:52:49;3.97;;;2.60;;
295;SDS011;132;48.770;9.200;2022-10-17T03:55:16;2.83;;;2.67;;
295;SDS011;132;48.770;9.200;2022-10-17T03:57:43;7.23;;;3.00;;
295;SDS011;132;48.770;9.200;2022-10-17T04:00:10;4.40;;;3.20;;
295;SDS011;132;48.770;9.200;2022-10-17T04:02:40;8.77;;;3.30;;
295;SDS011;132;48.770;9.200;2022-10-17T04:05:10;7.87;;;3.50;;
295;SDS011;132;48.770;9.200;2022-10-17T04:07:36;5.00;;;3.20;;
295;SDS011;132;48.770;9.200;2022-10-17T04:10:04;5.10;;;2.77;;
295;SDS011;132;48.770;9.200;2022-10-17T04:12:31;21.63;;;3.43;;
295;SDS011;132;48.770;9.200;2022-10-17T04:14:58;5.30;;;2.80;;
295;SDS011;132;48.770;9.200;2022-10-17T04:17:25;5.93;;;3.30;;
295;SDS011;132;48.770;9.200;2022-10-17T04:19:52;5.73;;;3.30;;
295;SDS011;132;48.770;9.200;2022-10-17T04:22:18;9.30;;;3.33;;
295;SDS011;132;48.770;9.200;2022-10-17T04:24:45;4.50;;;3.10;;
295;SDS011;132;48.770;9.200;2022-10-17T04:27:47;6.83;;;2.87;;
295;SDS011;132;48.770;9.200;2022-10-17T04:30:14;7.00;;;3.23;;
295;SDS011;132;48.770;9.200;2022-10-17T04:32:41;6.40;;;3.30;;
295;SDS011;132;48.770;9.200;2022-10-17T04:35:13;12.10;;;3.37;;
295;SDS011;132;48.770;9.200;2022-10-17T04:37:45;7.17;;;3.33;;
295;SDS011;132;48.770;9.200;2022-10-17T04:40:16;5.17;;;3.30;;
295;SDS011;132;48.770;9.200;2022-10-17T04:42:44;13.80;;;3.37;;
295;SDS011;132;48.770;9.200;2022-10-17T04:45:13;7.33;;;3.20;;
295;SDS011;132;48.770;9.200;2022-10-17T04:47:40;8.27;;;3.20;;
295;SDS011;132;48.770;9.200;2022-10-17T04:50:07;10.00;;;3.23;;
295;SDS011;132;48.770;9.200;2022-10-17T04:52:35;4.13;;;2.93;;
295;SDS011;132;48.770;9.200;2022-10-17T04:55:04;7.20;;;3.23;;
295;SDS011;132;48.770;9.200;2022-10-17T04:57:35;5.20;;;3.30;;
295;SDS011;132;48.770;9.200;2022-10-17T05:00:15;4.30;;;3.27;;
295;SDS011;132;48.770;9.200;2022-10-17T05:03:00;4.63;;;3.60;;
295;SDS011;132;48.770;9.200;2022-10-17T05:05:28;11.13;;;3.50;;
295;SDS011;132;48.770;9.200;2022-10-17T05:07:55;6.67;;;3.50;;
295;SDS011;132;48.770;9.200;2022-10-17T05:10:25;7.50;;;4.03;;
295;SDS011;132;48.770;9.200;2022-10-17T05:12:53;4.80;;;3.60;;
295;SDS011;132;48.770;9.200;2022-10-17T05:15:22;9.27;;;3.47;;
295;SDS011;132;48.770;9.200;2022-10-17T05:17:53;9.93;;;4.00;;
295;SDS011;132;48.770;9.200;2022-10-17T05:20:21;4.60;;;3.20;;
295;SDS011;132;48.770;9.200;2022-10-17T05:22:48;10.97;;;3.70;;
295;SDS011;132;48.770;9.200;2022-10-17T05:25:14;9.27;;;3.80;;
295;SDS011;132;48.770;9.200;2022-10-17T05:27:41;6.03;;;3.63;;
295;SDS011;132;48.770;9.200;2022-10-17T05:30:08;5.60;;;3.80;;
295;SDS011;132;48.770;9.200;2022-10-17T05:32:36;5.50;;;3.70;;
295;SDS011;132;48.770;9.200;2022-10-17T05:35:03;9.60;;;3.70;;
295;SDS011;132;48.770;9.200;2022-10-17T05:37:31;7.40;;;3.73;;
295;SDS011;132;48.770;9.200;2022-10-17T05:39:59;7.53;;;3.87;;
295;SDS011;132;48.770;9.200;2022-10-17T05:42:26;9.63;;;4.07;;
295;SDS011;132;48.770;9.200;2022-10-17T05:44:52;10.50;;;4.40;;
295;SDS011;132;48.770;9.200;2022-10-17T05:47:19;10.23;;;4.10;;
295;SDS011;132;48.770;9.200;2022-10-17T05:49:45;11.10;;;3.90;;
295;SDS011;132;48.770;9.200;2022-10-17T05:52:12;12.03;;;4.00;;
295;SDS011;132;48.770;9.200;2022-10-17T05:55:01;10.00;;;3.67;;
295;SDS011;132;48.770;9.200;2022-10-17T05:57:28;7.33;;;3.13;;
295;SDS011;132;48.770;9.200;2022-10-17T05:59:56;6.50;;;3.73;;
295;SDS011;132;48.770;9.200;2022-10-17T06:02:23;8.87;;;3.60;;
295;SDS011;132;48.770;9.200;2022-10-17T06:04:49;7.23;;;3.40;;
295;SDS011;132;48.770;9.200;2022-10-17T06:07:17;7.23;;;4.00;;
295;SDS011;132;48.770;9.200;2022-10-17T06:09:44;7.57;;;4.30;;
295;SDS011;132;48.770;9.200;2022-10-17T06:12:10;9.13;;;4.43;;
295;SDS011;132;48.770;9.200;2022-10-17T06:14:37;9.33;;;4.43;;
295;SDS011;132;48.770;9.200;2022-10-17T06:17:05;10.13;;;3.63;;
295;SDS011;132;48.770;9.200;2022-10-17T06:19:31;5.37;;;3.70;;
295;SDS011;132;48.770;9.200;2022-10-17T06:21:58;6.60;;;4.30;;
295;SDS011;132;48.770;9.200;2022-10-17T06:24:26;5.80;;;3.57;;
295;SDS011;132;48.770;9.200;2022-10-17T06:26:53;9.13;;;3.70;;
295;SDS011;132;48.770;9.200;2022-10-17T06:29:20;6.57;;;4.13;;
295;SDS011;132;48.770;9.200;2022-10-17T06:31:50;6.83;;;3.97;;
295;SDS011;132;48.770;9.200;2022-10-17T06:34:18;9.93;;;3.87;;
295;SDS011;132;48.770;9.200;2022-10-17T06:36:45;9.47;;;4.30;;
295;SDS011;132;48.770;9.200;2022-10-17T06:39:11;10.50;;;4.23;;
295;SDS011;132;48.770;9.200;2022-10-17T06:41:56;13.13;;;3.90;;
295;SDS011;132;48.770;9.200;2022-10-17T06:44:36;5.97;;;3.60;;
295;SDS011;132;48.770;9.200;2022-10-17T06:47:23;10.17;;;3.73;;
295;SDS011;132;48.770;9.200;2022-10-17T06:49:55;11.17;;;3.80;;
295;SDS011;132;48.770;9.200;2022-10-17T06:52:30;7.93;;;4.17;;
295;SDS011;132;48.770;9.200;2022-10-17T06:55:15;7.43;;;3.73;;
295;SDS011;132;48.770;9.200;2022-10-17T06:57:56;16.90;;;4.13;;
295;SDS011;132;48.770;9.200;2022-10-17T07:00:57;5.27;;;3.40;;
295;SDS011;132;48.770;9.200;2022-10-17T07:03:28;4.40;;;3.47;;
295;SDS011;132;48.770;9.200;2022-10-17T07:05:55;6.30;;;3.87;;
295;SDS011;132;48.770;9.200;2022-10-17T07:08:23;5.90;;;3.57;;
295;SDS011;132;48.770;9.200;2022-10-17T07:10:51;16.53;;;3.50;;
295;SDS011;132;48.770;9.200;2022-10-17T07:13:17;5.87;;;3.60;;
295;SDS011;132;48.770;9.200;2022-10-17T07:15:44;8.63;;;3.70;;
295;SDS011;132;48.770;9.200;2022-10-17T07:18:11;5.80;;;3.40;;
295;SDS011;132;48.770;9.200;2022-10-17T07:20:38;15.63;;;3.83;;
295;SDS011;132;48.770;9.200;2022-10-17T07:23:05;7.00;;;3.67;;
295;SDS011;132;48.770;9.200;2022-10-17T07:25:32;8.60;;;3.80;;
295;SDS011;132;48.770;9.200;2022-10-17T07:28:04;9.60;;;4.00;;
295;SDS011;132;48.770;9.200;2022-10-17T07:30:31;7.20;;;3.60;;
295;SDS011;132;48.770;9.200;2022-10-17T07:33:03;9.83;;;4.00;;
295;SDS011;132;48.770;9.200;2022-10-17T07:35:30;7.83;;;4.33;;
295;SDS011;132;48.770;9.200;2022-10-17T07:37:56;9.37;;;4.07;;
295;SDS011;132;48.770;9.200;2022-10-17T07:40:22;13.77;;;4.30;;
295;SDS011;132;48.770;9.200;2022-10-17T07:42:49;12.00;;;4.50;;
295;SDS011;132;48.770;9.200;2022-10-17T07:45:16;7.03;;;4.20;;
295;SDS011;132;48.770;9.200;2022-10-17T07:47:43;7.90;;;3.67;;
295;SDS011;132;48.770;9.200;2022-10-17T07:50:12;6.53;;;3.80;;
295;SDS011;132;48.770;9.200;2022-10-17T07:52:39;7.20;;;4.00;;
295;SDS011;132;48.770;9.200;2022-10-17T07:55:08;16.73;;;4.63;;
295;SDS011;132;48.770;9.200;2022-10-17T07:57:34;7.10;;;4.60;;
295;SDS011;132;48.770;9.200;2022-10-17T08:00:01;12.83;;;4.80;;
295;SDS011;132;48.770;9.200;2022-10-17T08:02:27;11.73;;;5.20;;
295;SDS011;132;48.770;9.200;2022-10-17T08:04:54;16.67;;;5.03;;
295;SDS011;132;48.770;9.200;2022-10-17T08:07:20;7.03;;;4.33;;
295;SDS011;132;48.770;9.200;2022-10-17T08:09:47;9.80;;;5.27;;
295;SDS011;132;48.770;9.200;2022-10-17T08:12:13;12.27;;;4.87;;
295;SDS011;132;48.770;9.200;2022-10-17T08:14:40;13.23;;;5.20;;
295;SDS011;132;48.770;9.200;2022-10-17T08:17:08;9.93;;;5.20;;
295;SDS011;132;48.770;9.200;2022-10-17T08:19:38;8.30;;;4.30;;
295;SDS011;132;48.770;9.200;2022-10-17T08:22:05;10.37;;;4.43;;
295;SDS011;132;48.770;9.200;2022-10-17T08:24:31;10.73;;;4.20;;
295;SDS011;132;48.770;9.200;2022-10-17T08:26:58;9.90;;;4.33;;
295;SDS011;132;48.770;9.200;2022-10-17T08:29:25;7.70;;;4.53;;
295;SDS011;132;48.770;9.200;2022-10-17T08:31:52;8.57;;;4.60;;
295;SDS011;132;48.770;9.200;2022-10-17T08:34:18;8.23;;;4.27;;
295;SDS011;132;48.770;9.200;2022-10-17T08:36:45;9.27;;;3.70;;
295;SDS011;132;48.770;9.200;2022-10-17T08:39:11;7.57;;;4.40;;
295;SDS011;132;48.770;9.200;2022-10-17T08:44:14;8.23;;;4.40;;
295;SDS011;132;48.770;9.200;2022-10-17T08:47:19;6.00;;;3.90;;
295;SDS011;132;48.770;9.200;2022-10-17T08:50:05;6.23;;;4.00;;
295;SDS011;132;48.770;9.200;2022-10-17T08:52:42;14.00;;;4.30;;
295;SDS011;132;48.770;9.200;2022-10-17T08:55:15;8.43;;;3.87;;
295;SDS011;132;48.770;9.200;2022-10-17T08:57:46;7.23;;;3.97;;
295;SDS011;132;48.770;9.200;2022-10-17T09:00:17;14.57;;;3.90;;
295;SDS011;132;48.770;9.200;2022-10-17T09:03:48;11.70;;;4.23;;
295;SDS011;132;48.770;9.200;2022-10-17T09:06:16;8.60;;;4.00;;
295;SDS011;132;48.770;9.200;2022-10-17T09:08:52;5.10;;;3.50;;
295;SDS011;132;48.770;9.200;2022-10-17T09:11:32;31.70;;;4.27;;
295;SDS011;132;48.770;9.200;2022-10-17T09:22:57;6.80;;;2.83;;
295;SDS011;132;48.770;9.200;2022-10-17T09:25:31;11.70;;;3.80;;
295;SDS011;132;48.770;9.200;2022-10-17T09:28:10;4.73;;;3.17;;
295;SDS011;132;48.770;9.200;2022-10-17T09:30:43;6.37;;;3.17;;
295;SDS011;132;48.770;9.200;2022-10-17T09:33:24;7.30;;;3.47;;
295;SDS011;132;48.770;9.200;2022-10-17T09:35:53;7.83;;;3.77;;
295;SDS011;132;48.770;9.200;2022-10-17T09:38:22;7.07;;;3.80;;
295;SDS011;132;48.770;9.200;2022-10-17T09:40:56;7.90;;;3.50;;
295;SDS011;132;48.770;9.200;2022-10-17T09:43:25;7.80;;;3.93;;
295;SDS011;132;48.770;9.200;2022-10-17T09:46:06;10.03;;;3.97;;
295;SDS011;132;48.770;9.200;2022-10-17T09:48:39;9.83;;;3.50;;
295;SDS011;132;48.770;9.200;2022-10-17T09:51:12;7.90;;;3.87;;
295;SDS011;132;48.770;9.200;2022-10-17T09:53:45;10.83;;;4.20;;
295;SDS011;132;48.770;9.200;2022-10-17T09:56:16;5.90;;;3.97;;
295;SDS011;132;48.770;9.200;2022-10-17T09:58:51;12.33;;;4.20;;
295;SDS011;132;48.770;9.200;2022-10-17T10:01:28;6.73;;;3.60;;
295;SDS011;132;48.770;9.200;2022-10-17T10:04:15;8.83;;;3.80;;
295;SDS011;132;48.770;9.200;2022-10-17T10:09:30;10.77;;;4.13;;
295;SDS011;132;48.770;9.200;2022-10-17T10:11:58;7.57;;;3.33;;
295;SDS011;132;48.770;9.200;2022-10-17T10:16:58;9.13;;;3.50;;
295;SDS011;132;48.770;9.200;2022-10-17T10:19:36;5.70;;;3.17;;
295;SDS011;132;48.770;9.200;2022-10-17T10:22:16;20.43;;;3.53;;
295;SDS011;132;48.770;9.200;2022-10-17T10:24:43;6.57;;;3.10;;
295;SDS011;132;48.770;9.200;2022-10-17T10:27:14;6.63;;;3.30;;
295;SDS011;132;48.770;9.200;2022-10-17T10:29:49;9.90;;;3.07;;
295;SDS011;132;48.770;9.200;2022-10-17T10:34:46;5.83;;;3.00;;
295;SDS011;132;48.770;9.200;2022-10-17T10:37:15;5.90;;;2.83;;
295;SDS011;132;48.770;9.200;2022-10-17T10:39:48;7.90;;;3.10;;
295;SDS011;132;48.770;9.200;2022-10-17T10:42:39;4.97;;;3.10;;
295;SDS011;132;48.770;9.200;2022-10-17T10:45:17;7.30;;;2.73;;
295;SDS011;132;48.770;9.200;2022-10-17T10:47:49;3.37;;;2.47;;
295;SDS011;132;48.770;9.200;2022-10-17T10:50:23;3.07;;;2.40;;
295;SDS011;132;48.770;9.200;2022-10-17T10:56:03;3.73;;;2.87;;
295;SDS011;132;48.770;9.200;2022-10-17T10:58:50;4.50;;;2.93;;
295;SDS011;132;48.770;9.200;2022-10-17T11:07:41;3.90;;;2.80;;
295;SDS011;132;48.770;9.200;2022-10-17T11:10:16;8.50;;;2.70;;
295;SDS011;132;48.770;9.200;2022-10-17T11:12:45;2.90;;;2.57;;
295;SDS011;132;48.770;9.200;2022-10-17T11:18:04;6.60;;;3.03;;
295;SDS011;132;48.770;9.200;2022-10-17T11:20:47;2.83;;;2.47;;
295;SDS011;132;48.770;9.200;2022-10-17T11:23:31;5.90;;;2.80;;
295;SDS011;132;48.770;9.200;2022-10-17T11:26:10;9.27;;;3.07;;
295;SDS011;132;48.770;9.200;2022-10-17T11:28:55;6.23;;;3.10;;
295;SDS011;132;48.770;9.200;2022-10-17T11:31:24;6.10;;;2.77;;
295;SDS011;132;48.770;9.200;2022-10-17T11:36:25;7.80;;;2.50;;
295;SDS011;132;48.770;9.200;2022-10-17T11:41:53;4.00;;;2.50;;
295;SDS011;132;48.770;9.200;2022-10-17T11:44:42;5.40;;;2.40;;
295;SDS011;132;48.770;9.200;2022-10-17T11:47:16;5.90;;;2.20;;
295;SDS011;132;48.770;9.200;2022-10-17T11:49:53;4.20;;;2.40;;
295;SDS011;132;48.770;9.200;2022-10-17T11:52:36;3.93;;;2.03;;
295;SDS011;132;48.770;9.200;2022-10-17T11:55:40;7.57;;;2.47;;
295;SDS011;132;48.770;9.200;2022-10-17T12:03:28;4.40;;;2.80;;
295;SDS011;132;48.770;9.200;2022-10-17T12:09:09;6.07;;;2.60;;
295;SDS011;132;48.770;9.200;2022-10-17T12:11:56;6.20;;;2.50;;
295;SDS011;132;48.770;9.200;2022-10-17T12:17:03;4.57;;;2.50;;
295;SDS011;132;48.770;9.200;2022-10-17T12:19:49;6.77;;;2.40;;
295;SDS011;132;48.770;9.200;2022-10-17T12:22:20;8.50;;;2.60;;
295;SDS011;132;48.770;9.200;2022-10-17T12:27:30;5.43;;;2.30;;
295;SDS011;132;48.770;9.200;2022-10-17T12:30:00;8.53;;;2.90;;
295;SDS011;132;48.770;9.200;2022-10-17T12:35:43;7.23;;;2.40;;
295;SDS011;132;48.770;9.200;2022-10-17T12:53:26;3.73;;;2.40;;
295;SDS011;132;48.770;9.200;2022-10-17T12:56:56;4.33;;;2.40;;
295;SDS011;132;48.770;9.200;2022-10-17T12:59:08;4.50;;;2.23;;
295;SDS011;132;48.770;9.200;2022-10-17T13:01:50;7.40;;;2.47;;
295;SDS011;132;48.770;9.200;2022-10-17T13:04:21;4.00;;;2.77;;
295;SDS011;132;48.770;9.200;2022-10-17T13:06:49;9.50;;;2.50;;
295;SDS011;132;48.770;9.200;2022-10-17T13:09:26;4.00;;;2.50;;
295;SDS011;132;48.770;9.200;2022-10-17T13:11:55;6.53;;;2.40;;
295;SDS011;132;48.770;9.200;2022-10-17T13:14:24;5.70;;;2.50;;
295;SDS011;132;48.770;9.200;2022-10-17T13:16:56;4.63;;;2.60;;
295;SDS011;132;48.770;9.200;2022-10-17T13:19:29;2.93;;;2.23;;
295;SDS011;132;48.770;9.200;2022-10-17T13:22:25;6.37;;;2.50;;
295;SDS011;132;48.770;9.200;2022-10-17T13:24:53;4.37;;;2.40;;
295;SDS011;132;48.770;9.200;2022-10-17T13:27:35;5.03;;;2.57;;
295;SDS011;132;48.770;9.200;2022-10-17T13:30:19;6.40;;;3.10;;
295;SDS011;132;48.770;9.200;2022-10-17T13:32:56;10.03;;;3.20;;
295;SDS011;132;48.770;9.200;2022-10-17T13:35:27;8.13;;;3.50;;
295;SDS011;132;48.770;9.200;2022-10-17T13:37:55;6.80;;;3.30;;
295;SDS011;132;48.770;9.200;2022-10-17T13:40:25;5.10;;;3.10;;
295;SDS011;132;48.770;9.200;2022-10-17T13:42:55;13.33;;;3.17;;
295;SDS011;132;48.770;9.200;2022-10-17T13:45:26;4.70;;;2.90;;
295;SDS011;132;48.770;9.200;2022-10-17T13:47:55;8.07;;;3.30;;
295;SDS011;132;48.770;9.200;2022-10-17T13:50:39;7.47;;;3.30;;
295;SDS011;132;48.770;9.200;2022-10-17T13:53:28;7.00;;;3.30;;
295;SDS011;132;48.770;9.200;2022-10-17T13:56:05;4.70;;;2.83;;
295;SDS011;132;48.770;9.200;2022-10-17T13:58:46;12.83;;;3.10;;
295;SDS011;132;48.770;9.200;2022-10-17T14:01:14;5.40;;;3.10;;
295;SDS011;132;48.770;9.200;2022-10-17T14:03:42;4.53;;;2.80;;
295;SDS011;132;48.770;9.200;2022-10-17T14:06:17;6.40;;;2.97;;
295;SDS011;132;48.770;9.200;2022-10-17T14:09:05;3.70;;;2.97;;
295;SDS011;132;48.770;9.200;2022-10-17T14:11:41;9.10;;;2.93;;
295;SDS011;132;48.770;9.200;2022-10-17T14:14:19;4.83;;;3.23;;
295;SDS011;132;48.770;9.200;2022-10-17T14:16:48;7.93;;;2.77;;
295;SDS011;132;48.770;9.200;2022-10-17T14:19:23;3.90;;;3.00;;
295;SDS011;132;48.770;9.200;2022-10-17T15:36:25;5.33;;;2.73;;
295;SDS011;132;48.770;9.200;2022-10-17T15:38:53;4.50;;;3.00;;
295;SDS011;132;48.770;9.200;2022-10-17T15:41:21;8.57;;;2.70;;
295;SDS011;132;48.770;9.200;2022-10-17T15:43:50;6.23;;;3.10;;
295;SDS011;132;48.770;9.200;2022-10-17T15:46:18;6.13;;;2.93;;
295;SDS011;132;48.770;9.200;2022-10-17T15:48:47;7.57;;;3.23;;
295;SDS011;132;48.770;9.200;2022-10-17T15:51:14;6.60;;;3.10;;
295;SDS011;132;48.770;9.200;2022-10-17T15:53:41;6.40;;;2.60;;
295;SDS011;132;48.770;9.200;2022-10-17T15:56:10;4.93;;;3.40;;
295;SDS011;132;48.770;9.200;2022-10-17T15:58:46;9.07;;;3.43;;
295;SDS011;132;48.770;9.200;2022-10-17T16:01:25;7.03;;;3.60;;
295;SDS011;132;48.770;9.200;2022-10-17T16:03:54;6.13;;;3.30;;
295;SDS011;132;48.770;9.200;2022-10-17T16:06:21;6.00;;;3.10;;
295;SDS011;132;48.770;9.200;2022-10-17T16:08:48;7.00;;;3.17;;
295;SDS011;132;48.770;9.200;2022-10-17T16:11:16;9.73;;;3.20;;
295;SDS011;132;48.770;9.200;2022-10-17T16:13:49;5.40;;;3.10;;
295;SDS011;132;48.770;9.200;2022-10-17T16:16:18;5.83;;;3.17;;
295;SDS011;132;48.770;9.200;2022-10-17T16:18:45;6.33;;;3.50;;
295;SDS011;132;48.770;9.200;2022-10-17T16:21:12;7.40;;;3.10;;
295;SDS011;132;48.770;9.200;2022-10-17T16:23:39;7.60;;;3.60;;
295;SDS011;132;48.770;9.200;2022-10-17T16:26:06;7.23;;;3.50;;
295;SDS011;132;48.770;9.200;2022-10-17T16:28:34;13.53;;;3.87;;
295;SDS011;132;48.770;9.200;2022-10-17T16:31:00;4.60;;;3.47;;
295;SDS011;132;48.770;9.200;2022-10-17T16:33:27;9.37;;;3.60;;
295;SDS011;132;48.770;9.200;2022-10-17T16:35:53;9.07;;;3.70;;
295;SDS011;132;48.770;9.200;2022-10-17T16:38:19;8.10;;;3.60;;
295;SDS011;132;48.770;9.200;2022-10-17T16:40:46;7.57;;;3.67;;
295;SDS011;132;48.770;9.200;2022-10-17T16:43:12;12.23;;;3.83;;
295;SDS011;132;48.770;9.200;2022-10-17T16:45:39;8.63;;;4.10;;
295;SDS011;132;48.770;9.200;2022-10-17T16:48:05;9.97;;;4.07;;
295;SDS011;132;48.770;9.200;2022-10-17T16:50:37;7.37;;;3.70;;
295;SDS011;132;48.770;9.200;2022-10-17T16:53:04;14.50;;;3.80;;
295;SDS011;132;48.770;9.200;2022-10-17T16:55:30;15.27;;;3.50;;
295;SDS011;132;48.770;9.200;2022-10-17T16:57:56;8.87;;;3.83;;
295;SDS011;132;48.770;9.200;2022-10-17T17:00:24;8.27;;;3.80;;
295;SDS011;132;48.770;9.200;2022-10-17T17:02:51;7.80;;;3.70;;
295;SDS011;132;48.770;9.200;2022-10-17T17:05:17;7.10;;;3.57;;
295;SDS011;132;48.770;9.200;2022-10-17T17:07:44;5.23;;;3.67;;
295;SDS011;132;48.770;9.200;2022-10-17T17:10:12;8.23;;;3.60;;
295;SDS011;132;48.770;9.200;2022-10-17T17:12:38;11.27;;;3.80;;
295;SDS011;132;48.770;9.200;2022-10-17T17:15:05;8.40;;;3.80;;
295;SDS011;132;48.770;9.200;2022-10-17T17:17:31;9.90;;;3.80;;
295;SDS011;132;48.770;9.200;2022-10-17T17:19:58;8.20;;;3.60;;
295;SDS011;132;48.770;9.200;2022-10-17T17:22:24;5.50;;;3.53;;
295;SDS011;132;48.770;9.200;2022-10-17T17:24:50;6.20;;;3.87;;
295;SDS011;132;48.770;9.200;2022-10-17T17:27:17;8.07;;;3.90;;
295;SDS011;132;48.770;9.200;2022-10-17T17:29:46;6.93;;;3.67;;
295;SDS011;132;48.770;9.200;2022-10-17T17:32:12;7.70;;;3.43;;
295;SDS011;132;48.770;9.200;2022-10-17T17:34:39;5.40;;;3.90;;
295;SDS011;132;48.770;9.200;2022-10-17T17:37:05;7.33;;;3.93;;
295;SDS011;132;48.770;9.200;2022-10-17T17:39:32;7.10;;;4.07;;
295;SDS011;132;48.770;9.200;2022-10-17T17:41:58;8.23;;;3.50;;
295;SDS011;132;48.770;9.200;2022-10-17T17:44:25;7.83;;;4.90;;
295;SDS011;132;48.770;9.200;2022-10-17T17:46:51;8.03;;;4.63;;
295;SDS011;132;48.770;9.200;2022-10-17T17:49:17;7.10;;;4.10;;
295;SDS011;132;48.770;9.200;2022-10-17T17:51:44;7.97;;;4.00;;
295;SDS011;132;48.770;9.200;2022-10-17T17:54:11;9.80;;;4.53;;
295;SDS011;132;48.770;9.200;2022-10-17T17:56:37;5.80;;;4.00;;
295;SDS011;132;48.770;9.200;2022-10-17T17:59:04;11.23;;;4.30;;
295;SDS011;132;48.770;9.200;2022-10-17T18:01:31;9.73;;;4.40;;
295;SDS011;132;48.770;9.200;2022-10-17T18:04:04;11.40;;;5.30;;
295;SDS011;132;48.770;9.200;2022-10-17T18:06:33;6.60;;;4.17;;
295;SDS011;132;48.770;9.200;2022-10-17T18:09:01;9.70;;;4.13;;
295;SDS011;132;48.770;9.200;2022-10-17T18:11:27;7.27;;;4.13;;
295;SDS011;132;48.770;9.200;2022-10-17T18:14:01;8.57;;;4.10;;
295;SDS011;132;48.770;9.200;2022-10-17T18:16:29;10.50;;;5.07;;
295;SDS011;132;48.770;9.200;2022-10-17T18:18:57;8.60;;;5.27;;
295;SDS011;132;48.770;9.200;2022-10-17T18:21:24;10.90;;;7.40;;
295;SDS011;132;48.770;9.200;2022-10-17T18:23:51;9.43;;;5.63;;
295;SDS011;132;48.770;9.200;2022-10-17T18:26:18;13.07;;;6.17;;
295;SDS011;132;48.770;9.200;2022-10-17T18:28:44;11.83;;;6.40;;
295;SDS011;132;48.770;9.200;2022-10-17T18:31:18;14.20;;;7.00;;
295;SDS011;132;48.770;9.200;2022-10-17T18:33:50;17.60;;;5.47;;
295;SDS011;132;48.770;9.200;2022-10-17T18:36:17;10.30;;;6.40;;
295;SDS011;132;48.770;9.200;2022-10-17T18:38:44;17.50;;;5.73;;
295;SDS011;132;48.770;9.200;2022-10-17T18:41:12;11.80;;;5.93;;
295;SDS011;132;48.770;9.200;2022-10-17T18:43:41;9.07;;;5.10;;
295;SDS011;132;48.770;9.200;2022-10-17T18:46:09;9.47;;;5.53;;
295;SDS011;132;48.770;9.200;2022-10-17T18:48:38;11.20;;;6.20;;
295;SDS011;132;48.770;9.200;2022-10-17T18:51:06;15.90;;;5.20;;
295;SDS011;132;48.770;9.200;2022-10-17T18:53:33;9.13;;;5.20;;
295;SDS011;132;48.770;9.200;2022-10-17T18:55:59;12.20;;;5.87;;